Osteen, FL (32764)

4:33 AM EDT on October 31, 2014 (GMT -0400)
Bent Oaks | Change Station
CLOSE
Current Station
Personal Weather Station
Location: Osteen, FL
Elevation: 41 ft
Nearby Weather Stations

Elev 41 ft 28.85 °N, 81.17 °W | Updated 9 minutes ago

Overcast
Overcast
62.0 °F
Feels Like 62.0 °F
N
0.0
Wind Variable Wind from North
Gusts 0.0 mph

Today
High -- | Low -- °F
--% Chance of Precip.
Yesterday
High -- | Low -- °F
Precip. -- in
7:36 AM 6:39 PM
First Quarter, 53% visible
Pressure 29.84 in
Visibility 10.0 miles
Clouds Few 2500 ft
Mostly Cloudy 6500 ft
Mostly Cloudy 8000 ft
Dew Point 60 °F
Humidity 92%
Rainfall -999.00 in
Snow Depth Not available.
UV 0 out of 12
Pollen 4.30 out of 12
Air Quality Not available.
Flu Activity Not available.
METAR KSFB 310753Z AUTO 33003KT 10SM FEW025 BKN065 BKN080 19/17 A2984 RMK AO2 SLP104 T01940167

More Conditions Fewer Conditions

Pressure 29.84 in
Visibility 10.0 miles
Clouds Few 2500 ft
Mostly Cloudy 6500 ft
Mostly Cloudy 8000 ft
Dew Point 60 °F
Humidity 92%
Rainfall -999.00 in
Snow Depth Not available.
UV 0 out of 12
Pollen 4.30 out of 12
Air Quality Not available.
Flu Activity Not available.
METAR KSFB 310753Z AUTO 33003KT 10SM FEW025 BKN065 BKN080 19/17 A2984 RMK AO2 SLP104 T01940167

More Conditions Fewer Conditions

Nowcast | as of 12:19 am EDT on October 31, 2014

Isolated showers and thunderstorms ahead of a cold front will produce moderate to heavy rain along and south of the I-4 corridor as they move east-northeast at 10 to 15 mph. Additional details...including graphics are available online at: http://www.Srh.NOAA.Gov/mlb/blog.Php

×

10-Day Weather Forecast

Almanac

Astronomy

Oct. 31, 2014 Rise Set
Actual Time
Civil Twilight
Nautical Twilight
Astronomical Twilight
Moon
Length of Visible Light
Length of Day
Tomorrow will be .
, % of the Moon is Illuminated

Today's Extremes

State Highs State Lows

Community

WunderPhotos

Upload Photos

1,766,573 photos uploaded!

WunderBlogs® & News

Nearby

Air Quality

  Air Quality AQ Index Pollutant
Not available.

Snow Depth

Station Depth Elevation

Earthquake Activity

City Distance Mag. Time & Date
Minimum magnitude displayed is 2.5.

Coastal Water Temperatures

Place Temperature

Nearby Weather Stations